Time;durP1;ratioP1;P1;durP2;ratioP2;P2;SDS_P1;SDS_P2;PMS_P1;PMS_P2;Temp;Humidity;BMP_temperature;BMP_pressure;BME280_temperature;BME280_humidity;BME280_pressure;Samples;Min_cycle;Max_cycle;Signal;HPM_P1;HPM_P2
2022/07/20 00:01:54;;;;;;;;;;;26.40;99.90;;;;;;5113378;28;19947;-72
2022/07/20 00:04:20;;;;;;;;;;;26.40;99.90;;;;;;5114468;28;20100;-71
2022/07/20 00:06:46;;;;;;;;;;;26.40;99.90;;;;;;5114244;28;19910;-71
2022/07/20 00:11:55;;;;;;;;;;;26.30;99.90;;;;;;5114252;28;19954;-71
2022/07/20 00:14:21;;;;;;;;;;;26.30;99.90;;;;;;5112640;28;19996;-71
2022/07/20 00:16:47;;;;;;;;;;;26.30;99.90;;;;;;5114172;28;20236;-71
2022/07/20 00:19:13;;;;;;;;;;;26.30;99.90;;;;;;5114075;28;19903;-71
2022/07/20 00:21:39;;;;;;;;;;;26.20;99.90;;;;;;5113994;28;19904;-71
2022/07/20 00:24:05;;;;;;;;;;;26.20;99.90;;;;;;5114003;28;19908;-72
2022/07/20 00:26:32;;;;;;;;;;;26.30;99.90;;;;;;5113959;28;19926;-71
2022/07/20 00:28:58;;;;;;;;;;;26.30;99.90;;;;;;5114217;28;20384;-71
2022/07/20 00:31:24;;;;;;;;;;;26.30;99.90;;;;;;5113908;28;19903;-72
2022/07/20 00:33:50;;;;;;;;;;;26.30;99.90;;;;;;5113968;28;19919;-70
2022/07/20 00:36:17;;;;;;;;;;;26.30;99.90;;;;;;5112528;28;20041;-72
2022/07/20 00:38:43;;;;;;;;;;;26.40;99.90;;;;;;5114143;28;19979;-71
2022/07/20 00:41:09;;;;;;;;;;;26.30;99.90;;;;;;5114096;28;19911;-71
2022/07/20 00:43:53;;;;;;;;;;;26.30;99.90;;;;;;5113555;28;19913;-71
2022/07/20 00:46:19;;;;;;;;;;;26.30;99.90;;;;;;5113812;28;19903;-71
2022/07/20 00:48:45;;;;;;;;;;;26.30;99.90;;;;;;5113593;28;20352;-72
2022/07/20 00:51:10;;;;;;;;;;;26.30;99.90;;;;;;5113888;28;20043;-71
2022/07/20 00:53:36;;;;;;;;;;;26.30;99.90;;;;;;5113541;28;20316;-71
2022/07/20 00:56:02;;;;;;;;;;;26.20;99.90;;;;;;5113655;28;19904;-72
2022/07/20 00:58:28;;;;;;;;;;;26.20;99.90;;;;;;5112122;28;19951;-72
2022/07/20 01:00:54;;;;;;;;;;;26.20;99.90;;;;;;5113645;28;19908;-73
2022/07/20 01:03:20;;;;;;;;;;;26.20;99.90;;;;;;5111880;28;20301;-72
2022/07/20 01:05:45;;;;;;;;;;;26.20;99.90;;;;;;5113358;27;20379;-71
2022/07/20 01:08:11;;;;;;;;;;;26.20;99.90;;;;;;5113103;28;19904;-71
2022/07/20 01:10:37;;;;;;;;;;;26.20;99.90;;;;;;5113380;27;19903;-71
2022/07/20 01:13:03;;;;;;;;;;;26.30;99.90;;;;;;5112690;27;19975;-70
2022/07/20 01:15:29;;;;;;;;;;;26.30;99.90;;;;;;5111614;28;19922;-71
2022/07/20 01:17:55;;;;;;;;;;;26.30;99.90;;;;;;5111322;28;19920;-71
2022/07/20 01:20:24;;;;;;;;;;;26.30;99.90;;;;;;5112939;28;20023;-71
2022/07/20 01:22:49;;;;;;;;;;;26.20;99.90;;;;;;5112906;28;19903;-70
2022/07/20 01:25:15;;;;;;;;;;;26.20;99.90;;;;;;5112907;28;19991;-70
2022/07/20 01:27:41;;;;;;;;;;;26.20;99.60;;;;;;5112969;28;19927;-71
2022/07/20 01:30:08;;;;;;;;;;;26.20;99.70;;;;;;5112973;27;20341;-71
2022/07/20 01:32:33;;;;;;;;;;;26.10;99.00;;;;;;5112195;28;20007;-71
2022/07/20 01:34:59;;;;;;;;;;;26.10;98.50;;;;;;5113014;28;19918;-71
2022/07/20 01:37:25;;;;;;;;;;;26.10;98.30;;;;;;5112692;28;19999;-71
2022/07/20 01:39:51;;;;;;;;;;;26.10;98.00;;;;;;5112850;28;19951;-71
2022/07/20 01:42:17;;;;;;;;;;;26.10;97.90;;;;;;5112765;28;20239;-71
2022/07/20 01:44:43;;;;;;;;;;;26.10;97.80;;;;;;5112818;28;20379;-72
2022/07/20 01:47:08;;;;;;;;;;;26.10;97.50;;;;;;5112893;28;19904;-72
2022/07/20 01:49:34;;;;;;;;;;;26.10;97.70;;;;;;5112782;28;20327;-71
2022/07/20 01:52:01;;;;;;;;;;;26.20;98.00;;;;;;5112498;28;20010;-72
2022/07/20 01:54:27;;;;;;;;;;;26.20;97.70;;;;;;5111227;28;19934;-71
2022/07/20 01:56:52;;;;;;;;;;;26.20;97.80;;;;;;5112616;28;20000;-71
2022/07/20 01:59:19;;;;;;;;;;;26.10;97.50;;;;;;5112204;28;19947;-71
2022/07/20 02:01:45;;;;;;;;;;;26.10;96.50;;;;;;5112220;28;19908;-70
2022/07/20 02:04:11;;;;;;;;;;;26.10;96.50;;;;;;5112057;28;19903;-72
2022/07/20 02:06:37;;;;;;;;;;;26.10;96.40;;;;;;5112484;28;19937;-71
2022/07/20 02:09:02;;;;;;;;;;;26.10;96.50;;;;;;5112017;28;19943;-71
2022/07/20 02:11:28;;;;;;;;;;;26.10;96.90;;;;;;5112218;28;19953;-72
2022/07/20 02:13:54;;;;;;;;;;;26.10;96.10;;;;;;5110441;28;19942;-71
2022/07/20 02:16:20;;;;;;;;;;;26.10;97.10;;;;;;5112108;28;19915;-72
2022/07/20 02:18:55;;;;;;;;;;;26.00;97.00;;;;;;5112211;28;19926;-72
2022/07/20 02:21:21;;;;;;;;;;;26.00;97.10;;;;;;5112369;28;19915;-71
2022/07/20 02:23:47;;;;;;;;;;;25.90;97.70;;;;;;5112260;28;19911;-71
2022/07/20 02:26:13;;;;;;;;;;;25.90;97.40;;;;;;5111077;28;19911;-71
2022/07/20 02:28:39;;;;;;;;;;;25.90;97.70;;;;;;5110950;28;19908;-71
2022/07/20 02:31:05;;;;;;;;;;;25.80;97.90;;;;;;5111116;28;19908;-72
2022/07/20 02:33:31;;;;;;;;;;;25.70;98.10;;;;;;5111298;28;20007;-71
2022/07/20 02:35:57;;;;;;;;;;;25.60;98.10;;;;;;5111497;28;19911;-71
2022/07/20 02:38:23;;;;;;;;;;;25.60;98.10;;;;;;5111594;28;20252;-71
2022/07/20 02:40:49;;;;;;;;;;;25.50;98.10;;;;;;5111275;28;19903;-71
2022/07/20 02:43:15;;;;;;;;;;;25.60;98.20;;;;;;5111174;28;19911;-72
2022/07/20 02:45:41;;;;;;;;;;;25.50;98.40;;;;;;5111326;28;19903;-71
2022/07/20 02:48:06;;;;;;;;;;;25.40;98.40;;;;;;5111047;28;19911;-71
2022/07/20 02:50:33;;;;;;;;;;;25.40;98.40;;;;;;5111521;28;20194;-72
2022/07/20 02:53:00;;;;;;;;;;;25.40;98.50;;;;;;5111966;28;19951;-71
2022/07/20 02:55:26;;;;;;;;;;;25.40;98.60;;;;;;5111744;28;19966;-71
2022/07/20 02:57:52;;;;;;;;;;;25.40;98.60;;;;;;5111946;28;19986;-71
2022/07/20 03:00:18;;;;;;;;;;;25.40;98.40;;;;;;5111869;28;19939;-71
2022/07/20 03:02:44;;;;;;;;;;;25.50;98.10;;;;;;5111894;28;19949;-73
2022/07/20 03:05:10;;;;;;;;;;;25.40;98.00;;;;;;5112116;28;19904;-71
2022/07/20 03:07:35;;;;;;;;;;;25.50;97.80;;;;;;5111873;28;19908;-71
2022/07/20 03:10:01;;;;;;;;;;;25.50;98.00;;;;;;5111822;28;19953;-72
2022/07/20 03:12:27;;;;;;;;;;;25.50;98.10;;;;;;5111640;28;19987;-72
2022/07/20 03:14:53;;;;;;;;;;;25.40;98.30;;;;;;5110157;28;20373;-71
2022/07/20 03:17:19;;;;;;;;;;;25.40;98.30;;;;;;5111635;28;20444;-71
2022/07/20 03:19:45;;;;;;;;;;;25.40;98.20;;;;;;5110451;28;19908;-72
2022/07/20 03:22:13;;;;;;;;;;;25.50;98.50;;;;;;5112055;28;19927;-72
2022/07/20 03:24:38;;;;;;;;;;;25.50;98.80;;;;;;5112012;28;20007;-72
2022/07/20 03:27:04;;;;;;;;;;;25.50;98.80;;;;;;5112036;28;19904;-71
2022/07/20 03:29:30;;;;;;;;;;;25.50;98.80;;;;;;5112406;28;19907;-72
2022/07/20 03:31:56;;;;;;;;;;;25.50;98.70;;;;;;5111865;28;19908;-72
2022/07/20 03:34:22;;;;;;;;;;;25.40;98.80;;;;;;5111836;28;20105;-72
2022/07/20 03:36:50;;;;;;;;;;;25.40;98.60;;;;;;5114274;28;19999;-73
2022/07/20 03:39:16;;;;;;;;;;;25.40;98.70;;;;;;5115894;28;19914;-72
2022/07/20 03:41:42;;;;;;;;;;;25.50;98.50;;;;;;5115437;28;19903;-70
2022/07/20 03:44:08;;;;;;;;;;;25.40;98.50;;;;;;5115136;28;20007;-72
2022/07/20 03:46:34;;;;;;;;;;;25.50;98.70;;;;;;5114693;27;19959;-72
2022/07/20 03:49:00;;;;;;;;;;;25.50;98.50;;;;;;5114690;28;20011;-72
2022/07/20 03:51:26;;;;;;;;;;;25.40;99.00;;;;;;5114362;28;19908;-72
2022/07/20 03:53:52;;;;;;;;;;;25.50;99.10;;;;;;5114510;28;19971;-72
2022/07/20 03:56:18;;;;;;;;;;;25.40;99.10;;;;;;5114459;28;19999;-71
2022/07/20 03:58:44;;;;;;;;;;;25.30;99.10;;;;;;5114128;28;20304;-71
2022/07/20 04:01:10;;;;;;;;;;;25.30;99.10;;;;;;5114738;28;19915;-71
2022/07/20 04:03:36;;;;;;;;;;;25.30;99.00;;;;;;5114908;28;19908;-71
2022/07/20 04:06:02;;;;;;;;;;;25.20;99.10;;;;;;5115516;28;19904;-72
2022/07/20 04:08:28;;;;;;;;;;;25.20;98.90;;;;;;5114700;28;19948;-71
2022/07/20 04:10:53;;;;;;;;;;;25.30;98.70;;;;;;5114862;28;19903;-72
2022/07/20 04:13:20;;;;;;;;;;;25.40;98.60;;;;;;5114627;28;19958;-71
2022/07/20 04:15:46;;;;;;;;;;;25.40;98.70;;;;;;5114490;28;19916;-71
2022/07/20 04:18:12;;;;;;;;;;;25.40;98.80;;;;;;5115924;28;20239;-71
2022/07/20 04:20:37;;;;;;;;;;;25.50;98.70;;;;;;5114224;28;19915;-71
2022/07/20 04:23:03;;;;;;;;;;;25.50;98.60;;;;;;5115902;28;20276;-72
2022/07/20 04:25:29;;;;;;;;;;;25.50;98.70;;;;;;5115597;28;20348;-72
2022/07/20 04:27:55;;;;;;;;;;;25.50;98.70;;;;;;5115631;28;19952;-72
2022/07/20 04:30:21;;;;;;;;;;;25.40;98.70;;;;;;5115168;28;19904;-72
2022/07/20 04:32:47;;;;;;;;;;;25.50;98.90;;;;;;5113773;28;19910;-72
2022/07/20 04:35:13;;;;;;;;;;;25.50;98.90;;;;;;5115507;28;19954;-72
2022/07/20 04:37:38;;;;;;;;;;;25.40;99.30;;;;;;5115324;28;19904;-71
2022/07/20 04:40:05;;;;;;;;;;;25.40;99.00;;;;;;5115581;28;19903;-72
2022/07/20 04:42:31;;;;;;;;;;;25.40;98.90;;;;;;5116084;28;19911;-72
2022/07/20 04:44:57;;;;;;;;;;;25.40;99.10;;;;;;5115505;28;20018;-72
2022/07/20 04:47:23;;;;;;;;;;;25.40;98.70;;;;;;5114538;28;19947;-71
2022/07/20 04:49:48;;;;;;;;;;;25.40;98.60;;;;;;5115539;28;19963;-71
2022/07/20 04:52:14;;;;;;;;;;;25.50;98.70;;;;;;5115215;28;20315;-71
2022/07/20 04:54:41;;;;;;;;;;;25.50;98.80;;;;;;5115472;28;19986;-71
2022/07/20 04:57:07;;;;;;;;;;;25.60;98.80;;;;;;5114823;28;19972;-72
2022/07/20 04:59:33;;;;;;;;;;;25.70;98.90;;;;;;5114676;28;19935;-71
2022/07/20 05:01:59;;;;;;;;;;;25.70;98.80;;;;;;5114587;28;19943;-72
2022/07/20 05:04:24;;;;;;;;;;;25.70;98.80;;;;;;5113642;28;20316;-72
2022/07/20 05:06:50;;;;;;;;;;;25.90;98.70;;;;;;5114806;28;19926;-72
2022/07/20 05:09:16;;;;;;;;;;;26.00;98.60;;;;;;5114819;27;19958;-71
2022/07/20 05:11:43;;;;;;;;;;;26.10;98.60;;;;;;5114854;28;19918;-71
2022/07/20 05:14:09;;;;;;;;;;;26.70;98.20;;;;;;5114136;28;19908;-72
2022/07/20 05:16:35;;;;;;;;;;;28.30;96.20;;;;;;5114223;28;19922;-71
2022/07/20 05:19:01;;;;;;;;;;;30.20;94.40;;;;;;5114488;28;19904;-71
2022/07/20 05:21:28;;;;;;;;;;;32.30;91.90;;;;;;5114389;28;20320;-72
2022/07/20 05:23:53;;;;;;;;;;;34.10;88.40;;;;;;5114329;28;19904;-72
2022/07/20 05:26:19;;;;;;;;;;;35.70;83.30;;;;;;5114486;28;19904;-72
2022/07/20 05:28:45;;;;;;;;;;;37.00;78.40;;;;;;5114178;28;19954;-72
2022/07/20 05:31:14;;;;;;;;;;;38.20;74.90;;;;;;5113973;28;19943;-72
2022/07/20 05:33:41;;;;;;;;;;;39.10;71.70;;;;;;5114376;28;19918;-71
2022/07/20 05:36:07;;;;;;;;;;;39.80;69.40;;;;;;5114353;28;20365;-71
2022/07/20 05:38:33;;;;;;;;;;;40.30;67.10;;;;;;5114484;28;20209;-71
2022/07/20 05:40:58;;;;;;;;;;;40.20;66.10;;;;;;5113852;28;19904;-72
2022/07/20 05:43:25;;;;;;;;;;;39.90;66.70;;;;;;5114251;28;20002;-71
2022/07/20 05:45:51;;;;;;;;;;;40.20;66.10;;;;;;5113573;28;20360;-71
2022/07/20 05:48:17;;;;;;;;;;;41.00;64.60;;;;;;5114106;28;20010;-72
2022/07/20 05:50:43;;;;;;;;;;;41.70;63.20;;;;;;5113420;28;19911;-72
2022/07/20 05:53:10;;;;;;;;;;;42.40;61.60;;;;;;5113403;28;19940;-72
2022/07/20 05:55:36;;;;;;;;;;;43.10;60.60;;;;;;5113129;28;19952;-72
2022/07/20 05:58:02;;;;;;;;;;;43.30;59.60;;;;;;5112250;28;19908;-72
2022/07/20 06:00:28;;;;;;;;;;;43.50;58.60;;;;;;5112137;28;19903;-72
2022/07/20 06:02:54;;;;;;;;;;;43.60;58.50;;;;;;5113081;28;19918;-73
2022/07/20 06:05:20;;;;;;;;;;;43.70;58.00;;;;;;5111507;28;20375;-72
2022/07/20 06:07:46;;;;;;;;;;;44.20;57.80;;;;;;5113342;28;19999;-72
2022/07/20 06:10:12;;;;;;;;;;;44.90;56.60;;;;;;5112887;28;19904;-72
2022/07/20 06:12:38;;;;;;;;;;;44.60;56.40;;;;;;5113354;28;19903;-72
2022/07/20 06:15:04;;;;;;;;;;;45.20;55.70;;;;;;5112998;28;19911;-72
2022/07/20 06:17:39;;;;;;;;;;;45.10;55.80;;;;;;5112774;28;20321;-72
2022/07/20 06:20:08;;;;;;;;;;;45.50;54.90;;;;;;5113631;28;19903;-72
2022/07/20 06:22:38;;;;;;;;;;;45.90;54.60;;;;;;5111741;28;19904;-73
2022/07/20 06:25:05;;;;;;;;;;;45.90;53.80;;;;;;5111720;28;20356;-72
2022/07/20 06:27:31;;;;;;;;;;;45.90;54.00;;;;;;5113085;28;19904;-72
2022/07/20 06:29:57;;;;;;;;;;;45.60;54.20;;;;;;5113016;28;19930;-71
2022/07/20 06:32:23;;;;;;;;;;;45.50;54.10;;;;;;5112823;28;20328;-71
2022/07/20 06:34:48;;;;;;;;;;;45.90;53.90;;;;;;5113178;28;19957;-71
2022/07/20 06:37:14;;;;;;;;;;;46.20;53.20;;;;;;5112952;28;19907;-72
2022/07/20 06:39:40;;;;;;;;;;;46.30;53.00;;;;;;5111391;28;19958;-71
2022/07/20 06:42:06;;;;;;;;;;;45.90;53.10;;;;;;5112852;28;19908;-71
2022/07/20 06:44:32;;;;;;;;;;;46.10;52.40;;;;;;5113197;28;20269;-71
2022/07/20 06:46:57;;;;;;;;;;;46.70;50.90;;;;;;5113034;28;20244;-71
2022/07/20 06:49:24;;;;;;;;;;;46.40;50.50;;;;;;5111547;28;19911;-71
2022/07/20 06:51:50;;;;;;;;;;;47.10;50.30;;;;;;5112727;28;19903;-71
2022/07/20 06:54:16;;;;;;;;;;;47.70;49.60;;;;;;5113277;28;20327;-71
2022/07/20 06:56:42;;;;;;;;;;;47.60;49.60;;;;;;5113055;28;19919;-72
2022/07/20 06:59:08;;;;;;;;;;;48.30;48.30;;;;;;5112994;28;20297;-71
2022/07/20 07:01:34;;;;;;;;;;;48.20;47.60;;;;;;5112738;28;19904;-72
2022/07/20 07:03:59;;;;;;;;;;;47.30;48.10;;;;;;5113266;28;20006;-72
2022/07/20 07:06:28;;;;;;;;;;;46.70;48.50;;;;;;5112816;28;19917;-73
2022/07/20 07:08:57;;;;;;;;;;;46.90;48.90;;;;;;5113035;28;19911;-71
2022/07/20 07:11:23;;;;;;;;;;;47.20;49.00;;;;;;5114312;28;19904;-71
2022/07/20 07:13:49;;;;;;;;;;;47.20;48.60;;;;;;5114990;28;20397;-72
2022/07/20 07:16:15;;;;;;;;;;;47.40;48.50;;;;;;5116438;28;20346;-72
2022/07/20 07:18:40;;;;;;;;;;;47.30;48.70;;;;;;5116659;28;20023;-72
2022/07/20 07:21:06;;;;;;;;;;;47.50;48.80;;;;;;5116625;28;19907;-71
2022/07/20 07:23:32;;;;;;;;;;;47.20;48.70;;;;;;5116481;28;19933;-72
2022/07/20 07:25:58;;;;;;;;;;;46.60;49.10;;;;;;5116809;28;19904;-72
2022/07/20 07:28:24;;;;;;;;;;;45.40;50.60;;;;;;5116517;28;20331;-72
2022/07/20 07:30:50;;;;;;;;;;;44.10;51.20;;;;;;5114782;28;19911;-72
2022/07/20 07:33:16;;;;;;;;;;;43.20;52.20;;;;;;5115847;28;19955;-72
2022/07/20 07:35:42;;;;;;;;;;;41.80;53.90;;;;;;5116535;28;20256;-71
2022/07/20 07:38:08;;;;;;;;;;;41.00;55.00;;;;;;5116063;28;20079;-71
2022/07/20 07:40:34;;;;;;;;;;;40.40;56.30;;;;;;5115961;27;20385;-71
2022/07/20 07:43:00;;;;;;;;;;;40.20;56.70;;;;;;5115917;28;19911;-72
2022/07/20 07:45:26;;;;;;;;;;;39.90;57.00;;;;;;5116026;28;19969;-71
2022/07/20 07:47:51;;;;;;;;;;;39.20;58.20;;;;;;5116340;28;20020;-71
2022/07/20 07:50:17;;;;;;;;;;;38.70;59.10;;;;;;5115849;28;19904;-71
2022/07/20 07:52:43;;;;;;;;;;;38.40;59.40;;;;;;5115641;28;19904;-71
2022/07/20 07:55:09;;;;;;;;;;;38.30;59.80;;;;;;5115757;28;19962;-71
2022/07/20 07:57:35;;;;;;;;;;;38.30;59.70;;;;;;5115403;28;19972;-71
2022/07/20 08:00:01;;;;;;;;;;;38.60;60.40;;;;;;5116078;28;20336;-72
2022/07/20 08:02:27;;;;;;;;;;;38.30;60.50;;;;;;5114075;28;19961;-71
2022/07/20 08:04:52;;;;;;;;;;;38.30;60.60;;;;;;5115892;28;19947;-72
2022/07/20 08:07:18;;;;;;;;;;;38.60;61.30;;;;;;5115129;28;19994;-71
2022/07/20 08:09:44;;;;;;;;;;;38.80;60.90;;;;;;5114692;28;19976;-71
2022/07/20 08:12:10;;;;;;;;;;;38.90;60.60;;;;;;5114178;28;19903;-72
2022/07/20 08:14:36;;;;;;;;;;;38.70;60.60;;;;;;5114950;27;19916;-71
2022/07/20 08:17:02;;;;;;;;;;;38.70;61.60;;;;;;5114717;28;20002;-72
2022/07/20 08:19:28;;;;;;;;;;;38.70;61.40;;;;;;5115142;28;19949;-71
2022/07/20 08:21:54;;;;;;;;;;;38.80;61.30;;;;;;5115364;28;19980;-71
2022/07/20 08:24:20;;;;;;;;;;;39.00;61.10;;;;;;5114807;28;20379;-72
2022/07/20 08:26:45;;;;;;;;;;;39.10;61.40;;;;;;5115793;28;19915;-72
2022/07/20 08:29:11;;;;;;;;;;;38.80;62.00;;;;;;5115275;28;19904;-72
2022/07/20 08:31:37;;;;;;;;;;;38.60;62.60;;;;;;5113658;28;19907;-72
2022/07/20 08:34:03;;;;;;;;;;;38.20;62.50;;;;;;5114942;28;20002;-71
2022/07/20 08:36:30;;;;;;;;;;;38.10;63.60;;;;;;5115156;28;19916;-72
2022/07/20 08:38:56;;;;;;;;;;;37.90;64.20;;;;;;5115149;28;19904;-72
2022/07/20 08:41:22;;;;;;;;;;;37.60;65.60;;;;;;5115226;28;20309;-72
2022/07/20 08:43:48;;;;;;;;;;;37.70;66.30;;;;;;5113372;28;19965;-71
2022/07/20 08:46:13;;;;;;;;;;;37.60;66.10;;;;;;5114695;28;20382;-72
2022/07/20 08:48:40;;;;;;;;;;;37.30;66.50;;;;;;5114730;28;20271;-71
2022/07/20 08:51:06;;;;;;;;;;;37.20;66.80;;;;;;5114767;28;19987;-71
2022/07/20 08:53:32;;;;;;;;;;;36.70;67.20;;;;;;5114165;27;19973;-71
2022/07/20 08:55:58;;;;;;;;;;;36.60;68.10;;;;;;5114234;28;19904;-71
2022/07/20 08:58:24;;;;;;;;;;;36.70;69.00;;;;;;5114223;28;19904;-71
2022/07/20 09:00:49;;;;;;;;;;;36.60;68.20;;;;;;5114568;28;19910;-74
2022/07/20 09:03:16;;;;;;;;;;;36.50;68.10;;;;;;5112953;28;19994;-71
2022/07/20 09:05:42;;;;;;;;;;;36.20;69.30;;;;;;5114412;28;19911;-71
2022/07/20 09:08:17;;;;;;;;;;;36.40;70.20;;;;;;5114046;28;19946;-72
2022/07/20 09:10:46;;;;;;;;;;;36.30;71.00;;;;;;5113899;28;19910;-72
2022/07/20 09:13:17;;;;;;;;;;;36.30;72.10;;;;;;5113914;28;19904;-71
2022/07/20 09:15:53;;;;;;;;;;;35.90;72.50;;;;;;5114238;28;19925;-72
2022/07/20 09:18:29;;;;;;;;;;;36.00;71.50;;;;;;5114161;28;20006;-71
2022/07/20 09:20:55;;;;;;;;;;;35.80;72.20;;;;;;5114034;28;19960;-72
2022/07/20 09:23:22;;;;;;;;;;;35.80;72.60;;;;;;5114071;28;20340;-72
2022/07/20 09:25:49;;;;;;;;;;;35.80;72.30;;;;;;5113699;28;20351;-73
2022/07/20 09:28:15;;;;;;;;;;;35.90;73.30;;;;;;5113778;28;19904;-72
2022/07/20 09:30:48;;;;;;;;;;;35.70;74.60;;;;;;5113822;27;20271;-72
2022/07/20 09:33:15;;;;;;;;;;;35.90;74.50;;;;;;5113685;28;20305;-72
2022/07/20 09:35:47;;;;;;;;;;;35.80;75.20;;;;;;5113395;28;19949;-72
2022/07/20 09:38:13;;;;;;;;;;;35.90;75.10;;;;;;5112606;28;19915;-77
2022/07/20 09:40:40;;;;;;;;;;;35.60;75.40;;;;;;5113695;28;19972;-72
2022/07/20 09:43:06;;;;;;;;;;;35.50;74.80;;;;;;5113420;28;19904;-71
2022/07/20 09:45:32;;;;;;;;;;;35.30;75.00;;;;;;5113374;28;19916;-71
2022/07/20 09:48:01;;;;;;;;;;;35.20;76.10;;;;;;5113803;28;19908;-71
2022/07/20 09:50:31;;;;;;;;;;;35.30;75.80;;;;;;5113843;28;19930;-71
2022/07/20 09:52:57;;;;;;;;;;;35.30;74.90;;;;;;5113347;28;19915;-71
2022/07/20 09:55:24;;;;;;;;;;;35.30;74.50;;;;;;5113427;28;19911;-71
2022/07/20 09:57:51;;;;;;;;;;;34.80;73.90;;;;;;5113056;28;19904;-71
2022/07/20 10:00:17;;;;;;;;;;;34.70;74.60;;;;;;5112971;28;19914;-71
2022/07/20 10:02:46;;;;;;;;;;;34.70;74.80;;;;;;5113741;28;20313;-71
2022/07/20 10:05:13;;;;;;;;;;;34.70;75.00;;;;;;5112907;28;19930;-72
2022/07/20 10:07:41;;;;;;;;;;;34.80;74.60;;;;;;5112816;28;20027;-72
2022/07/20 10:10:07;;;;;;;;;;;34.70;74.10;;;;;;5112783;28;19933;-71
2022/07/20 10:12:33;;;;;;;;;;;34.80;75.10;;;;;;5112843;28;20252;-71
2022/07/20 10:15:00;;;;;;;;;;;34.60;74.80;;;;;;5111340;28;20280;-71
2022/07/20 10:17:29;;;;;;;;;;;34.30;75.40;;;;;;5112556;28;19961;-71
2022/07/20 10:19:55;;;;;;;;;;;34.40;76.00;;;;;;5113474;28;20348;-71
2022/07/20 10:22:21;;;;;;;;;;;34.40;76.10;;;;;;5113304;28;19994;-71
2022/07/20 10:25:07;;;;;;;;;;;34.30;76.40;;;;;;5111785;28;20260;-71
2022/07/20 10:27:36;;;;;;;;;;;33.90;77.10;;;;;;5113548;28;19980;-71
2022/07/20 10:30:16;;;;;;;;;;;33.90;77.80;;;;;;5113362;28;19904;-71
2022/07/20 10:32:51;;;;;;;;;;;33.90;78.40;;;;;;5113422;28;19910;-72
2022/07/20 10:35:27;;;;;;;;;;;33.80;79.60;;;;;;5113044;28;20364;-71
2022/07/20 10:37:55;;;;;;;;;;;33.70;80.20;;;;;;5113187;28;19914;-71
2022/07/20 10:40:22;;;;;;;;;;;33.60;80.40;;;;;;5113604;28;20301;-71
2022/07/20 10:42:48;;;;;;;;;;;33.40;81.10;;;;;;5113343;28;19956;-71
2022/07/20 10:45:14;;;;;;;;;;;33.30;81.50;;;;;;5113057;28;19907;-72
2022/07/20 10:48:00;;;;;;;;;;;33.30;83.20;;;;;;5117111;28;20305;-71
2022/07/20 10:50:33;;;;;;;;;;;33.30;84.00;;;;;;5117441;28;19915;-71
2022/07/20 10:53:11;;;;;;;;;;;33.40;83.50;;;;;;5116575;28;19904;-71
2022/07/20 10:55:40;;;;;;;;;;;33.50;84.00;;;;;;5116984;28;19947;-72
2022/07/20 10:58:17;;;;;;;;;;;32.90;85.20;;;;;;5116351;28;19990;-72
2022/07/20 11:00:47;;;;;;;;;;;33.10;87.00;;;;;;5116340;28;19904;-71
2022/07/20 11:03:14;;;;;;;;;;;33.10;85.80;;;;;;5116701;28;19904;-71
2022/07/20 11:05:40;;;;;;;;;;;33.30;81.30;;;;;;5114554;28;20321;-71
2022/07/20 11:08:07;;;;;;;;;;;33.30;81.60;;;;;;5114893;28;19911;-71
2022/07/20 11:10:33;;;;;;;;;;;33.40;82.70;;;;;;5116187;28;19903;-71
2022/07/20 11:13:00;;;;;;;;;;;33.10;83.60;;;;;;5116370;28;20248;-71
2022/07/20 11:15:49;;;;;;;;;;;33.10;85.30;;;;;;5116509;28;19911;-71
2022/07/20 11:18:16;;;;;;;;;;;33.20;84.70;;;;;;5106200;28;19919;-71
2022/07/20 11:20:46;;;;;;;;;;;33.30;83.00;;;;;;5116976;28;19903;-71
2022/07/20 11:23:13;;;;;;;;;;;33.40;83.50;;;;;;5116720;27;19956;-71
2022/07/20 11:25:52;;;;;;;;;;;33.30;83.90;;;;;;5116486;28;19957;-71
2022/07/20 11:28:18;;;;;;;;;;;33.30;84.50;;;;;;5116636;28;19930;-71
2022/07/20 11:30:45;;;;;;;;;;;33.20;83.60;;;;;;5116598;28;19904;-71
2022/07/20 11:33:11;;;;;;;;;;;33.10;82.90;;;;;;5116440;28;19910;-71
2022/07/20 11:35:38;;;;;;;;;;;33.10;82.10;;;;;;5116734;28;20287;-71
2022/07/20 11:38:04;;;;;;;;;;;33.10;83.80;;;;;;5117003;27;20309;-71
2022/07/20 11:40:29;;;;;;;;;;;33.20;83.90;;;;;;5116682;28;19904;-71
2022/07/20 11:43:08;;;;;;;;;;;33.20;84.10;;;;;;5116345;28;19904;-71
2022/07/20 11:45:35;;;;;;;;;;;33.40;81.80;;;;;;5115157;28;19904;-71
2022/07/20 11:48:03;;;;;;;;;;;33.50;83.70;;;;;;5116895;28;19904;-72
2022/07/20 11:50:32;;;;;;;;;;;33.40;84.90;;;;;;5116502;28;20296;-71
2022/07/20 11:52:58;;;;;;;;;;;33.40;84.60;;;;;;5116337;28;19950;-71
2022/07/20 11:55:36;;;;;;;;;;;33.40;83.60;;;;;;5115922;28;20382;-71
2022/07/20 11:58:02;;;;;;;;;;;33.20;83.50;;;;;;5115890;28;19955;-71
2022/07/20 12:00:31;;;;;;;;;;;32.90;83.60;;;;;;5116058;28;20379;-71
2022/07/20 12:02:57;;;;;;;;;;;33.00;83.30;;;;;;5115592;28;19904;-72
2022/07/20 12:05:23;;;;;;;;;;;33.00;85.00;;;;;;5115971;28;20328;-71
2022/07/20 12:08:07;;;;;;;;;;;32.80;86.20;;;;;;5115614;28;19904;-71
2022/07/20 12:10:34;;;;;;;;;;;33.00;85.60;;;;;;5115967;28;19903;-71
2022/07/20 12:13:01;;;;;;;;;;;33.20;86.70;;;;;;5115528;28;19956;-71
2022/07/20 12:15:26;;;;;;;;;;;33.40;87.70;;;;;;5115610;28;19994;-72
2022/07/20 12:17:53;;;;;;;;;;;33.30;89.60;;;;;;5115248;28;20351;-71
2022/07/20 12:20:19;;;;;;;;;;;33.40;89.30;;;;;;5116007;28;19904;-71
2022/07/20 12:22:51;;;;;;;;;;;33.40;87.30;;;;;;5116007;28;20378;-71
2022/07/20 12:25:18;;;;;;;;;;;33.40;87.60;;;;;;5116473;28;19914;-71
2022/07/20 12:27:44;;;;;;;;;;;33.50;86.30;;;;;;5115663;27;20355;-71
2022/07/20 12:30:31;;;;;;;;;;;33.50;87.00;;;;;;5115637;28;19904;-71
2022/07/20 12:33:05;;;;;;;;;;;33.70;83.50;;;;;;5115378;28;20369;-72
2022/07/20 12:35:31;;;;;;;;;;;33.80;81.60;;;;;;5115427;28;19912;-71
2022/07/20 12:37:57;;;;;;;;;;;33.80;85.40;;;;;;5115454;28;19908;-70
2022/07/20 12:40:34;;;;;;;;;;;33.80;86.90;;;;;;5115497;28;19931;-71
2022/07/20 12:43:00;;;;;;;;;;;33.80;83.10;;;;;;5115346;28;19908;-70
2022/07/20 12:45:26;;;;;;;;;;;33.90;83.90;;;;;;5115699;28;19946;-71
2022/07/20 12:47:52;;;;;;;;;;;33.90;80.60;;;;;;5115231;28;19907;-71
2022/07/20 12:50:18;;;;;;;;;;;33.80;77.20;;;;;;5115302;28;19915;-71
2022/07/20 12:52:44;;;;;;;;;;;33.60;80.40;;;;;;5114515;28;19915;-71
2022/07/20 12:55:10;;;;;;;;;;;33.70;82.70;;;;;;5114597;28;19912;-71
2022/07/20 12:57:35;;;;;;;;;;;33.40;87.00;;;;;;5113015;28;20340;-71
2022/07/20 13:00:03;;;;;;;;;;;33.30;85.90;;;;;;5114386;28;19956;-71
2022/07/20 13:02:29;;;;;;;;;;;33.50;83.30;;;;;;5114485;28;19965;-71
2022/07/20 13:04:55;;;;;;;;;;;33.50;86.00;;;;;;5114871;28;20012;-71
2022/07/20 13:07:21;;;;;;;;;;;33.50;88.20;;;;;;5114438;28;19990;-71
2022/07/20 13:09:47;;;;;;;;;;;33.50;83.20;;;;;;5114053;28;20060;-71
2022/07/20 13:12:12;;;;;;;;;;;33.60;81.30;;;;;;5114621;28;19953;-71
2022/07/20 13:14:38;;;;;;;;;;;33.70;79.40;;;;;;5114474;28;19911;-71
2022/07/20 13:17:05;;;;;;;;;;;33.80;82.00;;;;;;5114412;28;19938;-71
2022/07/20 13:19:31;;;;;;;;;;;33.90;81.10;;;;;;5115439;28;20015;-71
2022/07/20 13:21:57;;;;;;;;;;;33.80;81.90;;;;;;5114772;28;19907;-71
2022/07/20 13:24:23;;;;;;;;;;;33.50;81.70;;;;;;5114528;28;19961;-71
2022/07/20 13:26:49;;;;;;;;;;;33.70;82.30;;;;;;5115152;28;19903;-71
2022/07/20 13:29:15;;;;;;;;;;;33.70;86.20;;;;;;5114829;28;20359;-71
2022/07/20 13:31:41;;;;;;;;;;;33.80;85.10;;;;;;5114979;28;20301;-72
2022/07/20 13:34:06;;;;;;;;;;;33.90;82.90;;;;;;5114318;28;19958;-71
2022/07/20 13:36:32;;;;;;;;;;;33.70;83.00;;;;;;5114423;28;19953;-71
2022/07/20 13:38:58;;;;;;;;;;;33.80;84.20;;;;;;5113031;28;19911;-71
2022/07/20 13:41:25;;;;;;;;;;;33.60;79.00;;;;;;5114162;28;19903;-71
2022/07/20 13:43:51;;;;;;;;;;;33.80;81.00;;;;;;5114652;28;19951;-71
2022/07/20 13:46:17;;;;;;;;;;;33.70;80.90;;;;;;5114094;28;19904;-71
2022/07/20 13:48:43;;;;;;;;;;;33.80;79.40;;;;;;5114150;28;19951;-71
2022/07/20 13:51:09;;;;;;;;;;;33.50;77.40;;;;;;5114149;28;20307;-71
2022/07/20 13:53:35;;;;;;;;;;;33.60;80.20;;;;;;5111674;28;20002;-71
2022/07/20 13:56:05;;;;;;;;;;;33.50;83.20;;;;;;5111746;28;20085;-71
2022/07/20 13:58:32;;;;;;;;;;;33.50;86.30;;;;;;5113516;28;19904;-71
2022/07/20 14:00:58;;;;;;;;;;;33.40;85.90;;;;;;5112986;28;19908;-71
2022/07/20 14:03:24;;;;;;;;;;;33.60;83.30;;;;;;5113239;28;19926;-71
2022/07/20 14:05:50;;;;;;;;;;;33.70;83.50;;;;;;5112945;28;19915;-72
2022/07/20 14:08:16;;;;;;;;;;;33.80;81.50;;;;;;5113103;28;19950;-71
2022/07/20 14:10:42;;;;;;;;;;;33.80;81.30;;;;;;5113138;28;20014;-71
2022/07/20 14:13:07;;;;;;;;;;;33.70;84.10;;;;;;5113323;28;20009;-71
2022/07/20 14:15:33;;;;;;;;;;;33.60;83.30;;;;;;5112987;28;20022;-72
2022/07/20 14:17:59;;;;;;;;;;;33.50;84.10;;;;;;5112546;28;19915;-72